sensor_id;sensor_type;location;lat;lon;timestamp;P1;durP1;ratioP1;P2;durP2;ratioP2
9823;SDS011;4951;50.778;7.196;2024-01-27T00:01:22;11.87;;;3.60;;
9823;SDS011;4951;50.778;7.196;2024-01-27T00:03:51;9.30;;;3.03;;
9823;SDS011;4951;50.778;7.196;2024-01-27T00:06:24;10.90;;;3.00;;
9823;SDS011;4951;50.778;7.196;2024-01-27T00:08:53;12.27;;;3.27;;
9823;SDS011;4951;50.778;7.196;2024-01-27T00:11:21;15.60;;;3.50;;
9823;SDS011;4951;50.778;7.196;2024-01-27T00:13:52;14.10;;;4.20;;
9823;SDS011;4951;50.778;7.196;2024-01-27T00:16:18;9.53;;;3.20;;
9823;SDS011;4951;50.778;7.196;2024-01-27T00:18:49;12.83;;;3.70;;
9823;SDS011;4951;50.778;7.196;2024-01-27T00:21:19;12.07;;;3.60;;
9823;SDS011;4951;50.778;7.196;2024-01-27T00:23:55;11.73;;;3.37;;
9823;SDS011;4951;50.778;7.196;2024-01-27T00:26:30;9.80;;;3.40;;
9823;SDS011;4951;50.778;7.196;2024-01-27T00:28:58;10.63;;;3.10;;
9823;SDS011;4951;50.778;7.196;2024-01-27T00:31:27;10.50;;;3.17;;
9823;SDS011;4951;50.778;7.196;2024-01-27T00:33:55;7.30;;;2.53;;
9823;SDS011;4951;50.778;7.196;2024-01-27T00:36:24;8.37;;;3.10;;
9823;SDS011;4951;50.778;7.196;2024-01-27T00:38:52;8.57;;;2.87;;
9823;SDS011;4951;50.778;7.196;2024-01-27T00:41:25;13.03;;;3.47;;
9823;SDS011;4951;50.778;7.196;2024-01-27T00:43:54;9.57;;;2.80;;
9823;SDS011;4951;50.778;7.196;2024-01-27T00:46:21;9.87;;;3.23;;
9823;SDS011;4951;50.778;7.196;2024-01-27T00:48:54;9.50;;;2.80;;
9823;SDS011;4951;50.778;7.196;2024-01-27T00:51:22;7.63;;;2.63;;
9823;SDS011;4951;50.778;7.196;2024-01-27T00:53:52;5.77;;;2.67;;
9823;SDS011;4951;50.778;7.196;2024-01-27T00:56:22;9.40;;;3.00;;
9823;SDS011;4951;50.778;7.196;2024-01-27T00:58:51;9.87;;;2.67;;
9823;SDS011;4951;50.778;7.196;2024-01-27T01:01:23;8.70;;;2.97;;
9823;SDS011;4951;50.778;7.196;2024-01-27T01:03:52;13.07;;;3.03;;
9823;SDS011;4951;50.778;7.196;2024-01-27T01:06:21;12.43;;;3.77;;
9823;SDS011;4951;50.778;7.196;2024-01-27T01:08:50;15.10;;;3.20;;
9823;SDS011;4951;50.778;7.196;2024-01-27T01:11:21;7.70;;;2.73;;
9823;SDS011;4951;50.778;7.196;2024-01-27T01:13:51;8.80;;;2.50;;
9823;SDS011;4951;50.778;7.196;2024-01-27T01:16:19;13.63;;;3.13;;
9823;SDS011;4951;50.778;7.196;2024-01-27T01:18:48;13.30;;;3.73;;
9823;SDS011;4951;50.778;7.196;2024-01-27T01:21:17;13.43;;;2.97;;
9823;SDS011;4951;50.778;7.196;2024-01-27T01:23:46;9.93;;;3.13;;
9823;SDS011;4951;50.778;7.196;2024-01-27T01:26:14;11.57;;;3.23;;
9823;SDS011;4951;50.778;7.196;2024-01-27T01:28:42;10.67;;;3.10;;
9823;SDS011;4951;50.778;7.196;2024-01-27T01:31:13;12.70;;;3.00;;
9823;SDS011;4951;50.778;7.196;2024-01-27T01:33:42;16.17;;;3.13;;
9823;SDS011;4951;50.778;7.196;2024-01-27T01:36:11;11.20;;;2.87;;
9823;SDS011;4951;50.778;7.196;2024-01-27T01:38:39;11.20;;;3.00;;
9823;SDS011;4951;50.778;7.196;2024-01-27T01:41:10;9.67;;;2.63;;
9823;SDS011;4951;50.778;7.196;2024-01-27T01:43:40;6.50;;;2.50;;
9823;SDS011;4951;50.778;7.196;2024-01-27T01:46:10;7.83;;;2.93;;
9823;SDS011;4951;50.778;7.196;2024-01-27T01:48:41;9.63;;;2.70;;
9823;SDS011;4951;50.778;7.196;2024-01-27T01:51:16;9.53;;;3.57;;
9823;SDS011;4951;50.778;7.196;2024-01-27T01:53:45;13.90;;;3.63;;
9823;SDS011;4951;50.778;7.196;2024-01-27T01:56:16;9.77;;;2.77;;
9823;SDS011;4951;50.778;7.196;2024-01-27T01:58:47;7.50;;;2.67;;
9823;SDS011;4951;50.778;7.196;2024-01-27T02:01:15;11.20;;;3.30;;
9823;SDS011;4951;50.778;7.196;2024-01-27T02:03:57;19.27;;;3.30;;
9823;SDS011;4951;50.778;7.196;2024-01-27T02:06:28;14.80;;;3.47;;
9823;SDS011;4951;50.778;7.196;2024-01-27T02:08:59;13.37;;;3.23;;
9823;SDS011;4951;50.778;7.196;2024-01-27T02:11:29;12.53;;;3.47;;
9823;SDS011;4951;50.778;7.196;2024-01-27T02:14:01;7.50;;;2.97;;
9823;SDS011;4951;50.778;7.196;2024-01-27T02:16:30;9.13;;;2.67;;
9823;SDS011;4951;50.778;7.196;2024-01-27T02:19:02;10.57;;;3.47;;
9823;SDS011;4951;50.778;7.196;2024-01-27T02:21:38;10.80;;;2.90;;
9823;SDS011;4951;50.778;7.196;2024-01-27T02:24:21;16.17;;;4.27;;
9823;SDS011;4951;50.778;7.196;2024-01-27T02:26:52;12.10;;;3.57;;
9823;SDS011;4951;50.778;7.196;2024-01-27T02:29:22;8.23;;;2.80;;
9823;SDS011;4951;50.778;7.196;2024-01-27T02:31:54;10.40;;;3.33;;
9823;SDS011;4951;50.778;7.196;2024-01-27T02:34:26;16.93;;;4.40;;
9823;SDS011;4951;50.778;7.196;2024-01-27T02:36:55;9.53;;;3.27;;
9823;SDS011;4951;50.778;7.196;2024-01-27T02:39:32;9.57;;;3.07;;
9823;SDS011;4951;50.778;7.196;2024-01-27T02:42:02;4.77;;;2.70;;
9823;SDS011;4951;50.778;7.196;2024-01-27T02:44:31;14.90;;;3.90;;
9823;SDS011;4951;50.778;7.196;2024-01-27T02:47:00;12.33;;;3.23;;
9823;SDS011;4951;50.778;7.196;2024-01-27T02:49:30;10.37;;;3.20;;
9823;SDS011;4951;50.778;7.196;2024-01-27T02:52:03;8.00;;;2.70;;
9823;SDS011;4951;50.778;7.196;2024-01-27T02:54:33;10.50;;;2.87;;
9823;SDS011;4951;50.778;7.196;2024-01-27T02:57:05;7.27;;;3.03;;
9823;SDS011;4951;50.778;7.196;2024-01-27T02:59:33;13.97;;;2.80;;
9823;SDS011;4951;50.778;7.196;2024-01-27T03:02:05;6.73;;;3.20;;
9823;SDS011;4951;50.778;7.196;2024-01-27T03:04:36;6.80;;;2.53;;
9823;SDS011;4951;50.778;7.196;2024-01-27T03:07:07;9.77;;;2.87;;
9823;SDS011;4951;50.778;7.196;2024-01-27T03:09:40;5.53;;;2.97;;
9823;SDS011;4951;50.778;7.196;2024-01-27T03:12:24;9.00;;;3.27;;
9823;SDS011;4951;50.778;7.196;2024-01-27T03:15:03;7.43;;;3.00;;
9823;SDS011;4951;50.778;7.196;2024-01-27T03:17:35;9.97;;;2.80;;
9823;SDS011;4951;50.778;7.196;2024-01-27T03:20:09;10.23;;;4.17;;
9823;SDS011;4951;50.778;7.196;2024-01-27T03:22:41;12.33;;;3.60;;
9823;SDS011;4951;50.778;7.196;2024-01-27T03:25:15;7.53;;;2.90;;
9823;SDS011;4951;50.778;7.196;2024-01-27T03:27:43;12.37;;;3.70;;
9823;SDS011;4951;50.778;7.196;2024-01-27T03:30:14;13.40;;;3.27;;
9823;SDS011;4951;50.778;7.196;2024-01-27T03:32:50;6.67;;;2.57;;
9823;SDS011;4951;50.778;7.196;2024-01-27T03:35:21;8.70;;;2.80;;
9823;SDS011;4951;50.778;7.196;2024-01-27T03:37:51;13.97;;;2.73;;
9823;SDS011;4951;50.778;7.196;2024-01-27T03:40:27;9.17;;;2.87;;
9823;SDS011;4951;50.778;7.196;2024-01-27T03:43:08;14.57;;;4.23;;
9823;SDS011;4951;50.778;7.196;2024-01-27T03:45:40;7.60;;;2.53;;
9823;SDS011;4951;50.778;7.196;2024-01-27T03:48:12;8.70;;;2.77;;
9823;SDS011;4951;50.778;7.196;2024-01-27T03:50:44;9.13;;;3.00;;
9823;SDS011;4951;50.778;7.196;2024-01-27T03:53:31;10.67;;;2.80;;
9823;SDS011;4951;50.778;7.196;2024-01-27T03:56:10;10.37;;;3.00;;
9823;SDS011;4951;50.778;7.196;2024-01-27T03:58:45;13.17;;;3.70;;
9823;SDS011;4951;50.778;7.196;2024-01-27T04:01:14;12.97;;;3.67;;
9823;SDS011;4951;50.778;7.196;2024-01-27T04:03:43;7.77;;;2.77;;
9823;SDS011;4951;50.778;7.196;2024-01-27T04:06:13;11.83;;;3.40;;
9823;SDS011;4951;50.778;7.196;2024-01-27T04:08:42;14.33;;;2.97;;
9823;SDS011;4951;50.778;7.196;2024-01-27T04:11:22;16.07;;;3.63;;
9823;SDS011;4951;50.778;7.196;2024-01-27T04:13:52;11.83;;;3.27;;
9823;SDS011;4951;50.778;7.196;2024-01-27T04:16:22;7.23;;;2.50;;
9823;SDS011;4951;50.778;7.196;2024-01-27T04:18:52;8.67;;;2.60;;
9823;SDS011;4951;50.778;7.196;2024-01-27T04:21:30;6.70;;;2.90;;
9823;SDS011;4951;50.778;7.196;2024-01-27T04:24:01;8.77;;;2.97;;
9823;SDS011;4951;50.778;7.196;2024-01-27T04:26:32;3.93;;;2.30;;
9823;SDS011;4951;50.778;7.196;2024-01-27T04:29:01;8.00;;;2.97;;
9823;SDS011;4951;50.778;7.196;2024-01-27T04:31:29;17.97;;;3.23;;
9823;SDS011;4951;50.778;7.196;2024-01-27T04:33:57;11.73;;;2.77;;
9823;SDS011;4951;50.778;7.196;2024-01-27T04:36:26;7.93;;;2.40;;
9823;SDS011;4951;50.778;7.196;2024-01-27T04:38:57;10.37;;;2.80;;
9823;SDS011;4951;50.778;7.196;2024-01-27T04:41:25;8.67;;;3.07;;
9823;SDS011;4951;50.778;7.196;2024-01-27T04:43:57;9.83;;;2.83;;
9823;SDS011;4951;50.778;7.196;2024-01-27T04:46:25;9.37;;;2.77;;
9823;SDS011;4951;50.778;7.196;2024-01-27T04:48:54;10.63;;;3.00;;
9823;SDS011;4951;50.778;7.196;2024-01-27T04:51:23;6.33;;;2.93;;
9823;SDS011;4951;50.778;7.196;2024-01-27T04:53:52;9.20;;;3.17;;
9823;SDS011;4951;50.778;7.196;2024-01-27T04:56:20;5.97;;;2.40;;
9823;SDS011;4951;50.778;7.196;2024-01-27T04:58:47;13.60;;;4.00;;
9823;SDS011;4951;50.778;7.196;2024-01-27T05:01:17;13.27;;;3.20;;
9823;SDS011;4951;50.778;7.196;2024-01-27T05:03:49;11.33;;;2.60;;
9823;SDS011;4951;50.778;7.196;2024-01-27T05:06:21;5.40;;;2.57;;
9823;SDS011;4951;50.778;7.196;2024-01-27T05:08:49;8.90;;;2.70;;
9823;SDS011;4951;50.778;7.196;2024-01-27T05:11:24;10.33;;;2.77;;
9823;SDS011;4951;50.778;7.196;2024-01-27T05:13:54;14.93;;;3.80;;
9823;SDS011;4951;50.778;7.196;2024-01-27T05:16:23;7.77;;;3.20;;
9823;SDS011;4951;50.778;7.196;2024-01-27T05:18:51;9.03;;;2.70;;
9823;SDS011;4951;50.778;7.196;2024-01-27T05:21:20;15.33;;;2.80;;
9823;SDS011;4951;50.778;7.196;2024-01-27T05:23:48;9.53;;;2.83;;
9823;SDS011;4951;50.778;7.196;2024-01-27T05:26:16;7.03;;;2.90;;
9823;SDS011;4951;50.778;7.196;2024-01-27T05:28:46;12.77;;;2.90;;
9823;SDS011;4951;50.778;7.196;2024-01-27T05:31:16;6.37;;;2.87;;
9823;SDS011;4951;50.778;7.196;2024-01-27T05:33:48;9.87;;;3.13;;
9823;SDS011;4951;50.778;7.196;2024-01-27T05:36:16;11.43;;;3.60;;
9823;SDS011;4951;50.778;7.196;2024-01-27T05:38:44;10.50;;;3.40;;
9823;SDS011;4951;50.778;7.196;2024-01-27T05:41:12;8.40;;;2.83;;
9823;SDS011;4951;50.778;7.196;2024-01-27T05:43:41;10.80;;;3.60;;
9823;SDS011;4951;50.778;7.196;2024-01-27T05:46:11;11.67;;;3.50;;
9823;SDS011;4951;50.778;7.196;2024-01-27T05:48:40;14.77;;;4.03;;
9823;SDS011;4951;50.778;7.196;2024-01-27T05:51:11;15.93;;;3.83;;
9823;SDS011;4951;50.778;7.196;2024-01-27T05:53:40;11.13;;;3.87;;
9823;SDS011;4951;50.778;7.196;2024-01-27T05:56:10;10.90;;;3.73;;
9823;SDS011;4951;50.778;7.196;2024-01-27T05:58:39;8.57;;;3.80;;
9823;SDS011;4951;50.778;7.196;2024-01-27T06:01:08;6.97;;;3.17;;
9823;SDS011;4951;50.778;7.196;2024-01-27T06:03:36;9.00;;;3.10;;
9823;SDS011;4951;50.778;7.196;2024-01-27T06:06:05;10.03;;;3.20;;
9823;SDS011;4951;50.778;7.196;2024-01-27T06:08:36;13.30;;;3.77;;
9823;SDS011;4951;50.778;7.196;2024-01-27T06:11:04;10.70;;;3.60;;
9823;SDS011;4951;50.778;7.196;2024-01-27T06:13:33;16.07;;;3.93;;
9823;SDS011;4951;50.778;7.196;2024-01-27T06:16:06;11.10;;;3.47;;
9823;SDS011;4951;50.778;7.196;2024-01-27T06:18:39;12.53;;;4.10;;
9823;SDS011;4951;50.778;7.196;2024-01-27T06:21:10;10.97;;;3.63;;
9823;SDS011;4951;50.778;7.196;2024-01-27T06:23:42;11.30;;;3.73;;
9823;SDS011;4951;50.778;7.196;2024-01-27T06:26:12;15.83;;;3.30;;
9823;SDS011;4951;50.778;7.196;2024-01-27T06:28:44;13.53;;;3.20;;
9823;SDS011;4951;50.778;7.196;2024-01-27T06:31:12;12.43;;;3.63;;
9823;SDS011;4951;50.778;7.196;2024-01-27T06:33:42;10.83;;;3.20;;
9823;SDS011;4951;50.778;7.196;2024-01-27T06:36:11;8.23;;;3.00;;
9823;SDS011;4951;50.778;7.196;2024-01-27T06:38:39;10.17;;;3.57;;
9823;SDS011;4951;50.778;7.196;2024-01-27T06:41:08;11.47;;;3.60;;
9823;SDS011;4951;50.778;7.196;2024-01-27T06:43:38;8.60;;;3.47;;
9823;SDS011;4951;50.778;7.196;2024-01-27T06:46:06;10.07;;;2.80;;
9823;SDS011;4951;50.778;7.196;2024-01-27T06:48:35;12.63;;;4.20;;
9823;SDS011;4951;50.778;7.196;2024-01-27T06:51:03;11.23;;;3.23;;
9823;SDS011;4951;50.778;7.196;2024-01-27T06:53:34;7.17;;;2.93;;
9823;SDS011;4951;50.778;7.196;2024-01-27T06:56:03;8.40;;;3.17;;
9823;SDS011;4951;50.778;7.196;2024-01-27T06:58:33;14.13;;;3.40;;
9823;SDS011;4951;50.778;7.196;2024-01-27T07:01:01;9.13;;;3.07;;
9823;SDS011;4951;50.778;7.196;2024-01-27T07:03:32;11.70;;;3.50;;
9823;SDS011;4951;50.778;7.196;2024-01-27T07:06:05;16.27;;;4.00;;
9823;SDS011;4951;50.778;7.196;2024-01-27T07:08:34;13.87;;;3.60;;
9823;SDS011;4951;50.778;7.196;2024-01-27T07:11:03;12.93;;;3.50;;
9823;SDS011;4951;50.778;7.196;2024-01-27T07:13:36;13.40;;;3.53;;
9823;SDS011;4951;50.778;7.196;2024-01-27T07:16:04;8.43;;;3.23;;
9823;SDS011;4951;50.778;7.196;2024-01-27T07:18:33;9.77;;;3.33;;
9823;SDS011;4951;50.778;7.196;2024-01-27T07:21:04;15.60;;;3.90;;
9823;SDS011;4951;50.778;7.196;2024-01-27T07:23:32;16.77;;;3.60;;
9823;SDS011;4951;50.778;7.196;2024-01-27T07:26:01;12.63;;;3.67;;
9823;SDS011;4951;50.778;7.196;2024-01-27T07:28:30;8.93;;;3.53;;
9823;SDS011;4951;50.778;7.196;2024-01-27T07:31:08;12.77;;;3.23;;
9823;SDS011;4951;50.778;7.196;2024-01-27T07:33:37;22.37;;;4.17;;
9823;SDS011;4951;50.778;7.196;2024-01-27T07:36:05;15.33;;;3.53;;
9823;SDS011;4951;50.778;7.196;2024-01-27T07:38:33;11.57;;;4.13;;
9823;SDS011;4951;50.778;7.196;2024-01-27T07:41:02;10.47;;;3.60;;
9823;SDS011;4951;50.778;7.196;2024-01-27T07:43:30;11.17;;;3.57;;
9823;SDS011;4951;50.778;7.196;2024-01-27T07:45:58;9.20;;;3.60;;
9823;SDS011;4951;50.778;7.196;2024-01-27T07:48:29;9.63;;;3.57;;
9823;SDS011;4951;50.778;7.196;2024-01-27T07:50:59;10.10;;;3.20;;
9823;SDS011;4951;50.778;7.196;2024-01-27T07:53:26;16.07;;;4.40;;
9823;SDS011;4951;50.778;7.196;2024-01-27T07:55:54;14.40;;;4.23;;
9823;SDS011;4951;50.778;7.196;2024-01-27T07:58:25;9.70;;;3.40;;
9823;SDS011;4951;50.778;7.196;2024-01-27T08:00:54;11.10;;;4.17;;
9823;SDS011;4951;50.778;7.196;2024-01-27T08:03:22;14.30;;;4.13;;
9823;SDS011;4951;50.778;7.196;2024-01-27T08:05:53;12.70;;;4.30;;
9823;SDS011;4951;50.778;7.196;2024-01-27T08:08:21;9.33;;;3.57;;
9823;SDS011;4951;50.778;7.196;2024-01-27T08:10:50;7.83;;;3.40;;
9823;SDS011;4951;50.778;7.196;2024-01-27T08:13:19;10.37;;;3.47;;
9823;SDS011;4951;50.778;7.196;2024-01-27T08:15:49;11.03;;;3.87;;
9823;SDS011;4951;50.778;7.196;2024-01-27T08:18:20;12.53;;;3.90;;
9823;SDS011;4951;50.778;7.196;2024-01-27T08:21:01;12.53;;;3.70;;
9823;SDS011;4951;50.778;7.196;2024-01-27T08:23:32;8.83;;;3.60;;
9823;SDS011;4951;50.778;7.196;2024-01-27T08:26:00;10.03;;;3.73;;
9823;SDS011;4951;50.778;7.196;2024-01-27T08:28:34;9.97;;;3.60;;
9823;SDS011;4951;50.778;7.196;2024-01-27T08:31:03;10.90;;;4.00;;
9823;SDS011;4951;50.778;7.196;2024-01-27T08:33:31;12.90;;;4.17;;
9823;SDS011;4951;50.778;7.196;2024-01-27T08:36:02;12.07;;;4.00;;
9823;SDS011;4951;50.778;7.196;2024-01-27T08:38:33;7.93;;;3.57;;
9823;SDS011;4951;50.778;7.196;2024-01-27T08:41:01;8.57;;;3.80;;
9823;SDS011;4951;50.778;7.196;2024-01-27T08:43:29;9.20;;;3.67;;
9823;SDS011;4951;50.778;7.196;2024-01-27T08:45:59;7.70;;;3.20;;
9823;SDS011;4951;50.778;7.196;2024-01-27T08:48:28;11.33;;;3.60;;
9823;SDS011;4951;50.778;7.196;2024-01-27T08:50:55;9.07;;;3.50;;
9823;SDS011;4951;50.778;7.196;2024-01-27T08:53:29;5.83;;;3.33;;
9823;SDS011;4951;50.778;7.196;2024-01-27T08:55:57;8.33;;;3.63;;
9823;SDS011;4951;50.778;7.196;2024-01-27T08:58:26;10.40;;;4.27;;
9823;SDS011;4951;50.778;7.196;2024-01-27T09:00:55;8.27;;;4.33;;
9823;SDS011;4951;50.778;7.196;2024-01-27T09:03:30;16.80;;;4.23;;
9823;SDS011;4951;50.778;7.196;2024-01-27T09:05:59;11.30;;;3.83;;
9823;SDS011;4951;50.778;7.196;2024-01-27T09:08:30;12.37;;;4.17;;
9823;SDS011;4951;50.778;7.196;2024-01-27T09:10:57;10.00;;;4.50;;
9823;SDS011;4951;50.778;7.196;2024-01-27T09:13:27;11.13;;;4.27;;
9823;SDS011;4951;50.778;7.196;2024-01-27T09:15:54;9.07;;;4.27;;
9823;SDS011;4951;50.778;7.196;2024-01-27T09:18:24;13.93;;;4.83;;
9823;SDS011;4951;50.778;7.196;2024-01-27T09:20:53;11.73;;;3.90;;
9823;SDS011;4951;50.778;7.196;2024-01-27T09:23:21;12.30;;;4.07;;
9823;SDS011;4951;50.778;7.196;2024-01-27T09:25:53;8.93;;;3.80;;
9823;SDS011;4951;50.778;7.196;2024-01-27T09:28:20;10.50;;;4.77;;
9823;SDS011;4951;50.778;7.196;2024-01-27T09:30:47;10.40;;;4.83;;
9823;SDS011;4951;50.778;7.196;2024-01-27T09:33:16;13.73;;;4.93;;
9823;SDS011;4951;50.778;7.196;2024-01-27T09:35:45;14.97;;;5.20;;
9823;SDS011;4951;50.778;7.196;2024-01-27T09:38:13;10.63;;;5.23;;
9823;SDS011;4951;50.778;7.196;2024-01-27T09:40:41;10.73;;;4.67;;
9823;SDS011;4951;50.778;7.196;2024-01-27T09:43:14;13.27;;;5.40;;
9823;SDS011;4951;50.778;7.196;2024-01-27T09:45:45;15.77;;;6.27;;
9823;SDS011;4951;50.778;7.196;2024-01-27T09:48:14;11.83;;;5.57;;
9823;SDS011;4951;50.778;7.196;2024-01-27T09:50:44;13.57;;;5.20;;
9823;SDS011;4951;50.778;7.196;2024-01-27T09:53:12;9.47;;;5.00;;
9823;SDS011;4951;50.778;7.196;2024-01-27T09:55:41;10.13;;;5.30;;
9823;SDS011;4951;50.778;7.196;2024-01-27T09:58:11;7.50;;;4.87;;
9823;SDS011;4951;50.778;7.196;2024-01-27T10:00:41;9.83;;;4.50;;
9823;SDS011;4951;50.778;7.196;2024-01-27T10:03:10;11.83;;;4.30;;
9823;SDS011;4951;50.778;7.196;2024-01-27T10:05:38;10.27;;;4.20;;
9823;SDS011;4951;50.778;7.196;2024-01-27T10:08:08;10.90;;;4.20;;
9823;SDS011;4951;50.778;7.196;2024-01-27T10:10:37;12.53;;;4.57;;
9823;SDS011;4951;50.778;7.196;2024-01-27T10:13:06;10.53;;;4.57;;
9823;SDS011;4951;50.778;7.196;2024-01-27T10:15:41;12.30;;;4.00;;
9823;SDS011;4951;50.778;7.196;2024-01-27T10:18:10;14.83;;;4.63;;
9823;SDS011;4951;50.778;7.196;2024-01-27T10:20:42;8.57;;;4.27;;
9823;SDS011;4951;50.778;7.196;2024-01-27T10:23:12;12.00;;;4.97;;
9823;SDS011;4951;50.778;7.196;2024-01-27T10:25:42;9.47;;;4.47;;
9823;SDS011;4951;50.778;7.196;2024-01-27T10:28:12;14.43;;;4.73;;
9823;SDS011;4951;50.778;7.196;2024-01-27T10:30:45;10.63;;;4.10;;
9823;SDS011;4951;50.778;7.196;2024-01-27T10:33:14;11.00;;;3.90;;
9823;SDS011;4951;50.778;7.196;2024-01-27T10:35:45;10.40;;;3.60;;
9823;SDS011;4951;50.778;7.196;2024-01-27T10:38:13;8.40;;;3.90;;
9823;SDS011;4951;50.778;7.196;2024-01-27T10:40:44;10.53;;;3.80;;
9823;SDS011;4951;50.778;7.196;2024-01-27T10:43:12;9.47;;;3.97;;
9823;SDS011;4951;50.778;7.196;2024-01-27T10:45:48;14.73;;;4.63;;
9823;SDS011;4951;50.778;7.196;2024-01-27T10:48:16;11.63;;;4.20;;
9823;SDS011;4951;50.778;7.196;2024-01-27T10:50:45;12.20;;;3.93;;
9823;SDS011;4951;50.778;7.196;2024-01-27T10:53:19;9.03;;;3.60;;
9823;SDS011;4951;50.778;7.196;2024-01-27T10:55:51;12.77;;;4.57;;
9823;SDS011;4951;50.778;7.196;2024-01-27T10:58:24;8.63;;;3.53;;
9823;SDS011;4951;50.778;7.196;2024-01-27T11:00:56;10.50;;;3.90;;
9823;SDS011;4951;50.778;7.196;2024-01-27T11:03:31;11.07;;;3.90;;
9823;SDS011;4951;50.778;7.196;2024-01-27T11:06:03;9.57;;;4.20;;
9823;SDS011;4951;50.778;7.196;2024-01-27T11:08:33;12.87;;;3.97;;
9823;SDS011;4951;50.778;7.196;2024-01-27T11:11:02;9.07;;;4.00;;
9823;SDS011;4951;50.778;7.196;2024-01-27T11:13:29;10.90;;;3.90;;
9823;SDS011;4951;50.778;7.196;2024-01-27T11:16:00;9.70;;;3.20;;
9823;SDS011;4951;50.778;7.196;2024-01-27T11:18:29;11.50;;;4.17;;
9823;SDS011;4951;50.778;7.196;2024-01-27T11:20:58;9.73;;;3.47;;
9823;SDS011;4951;50.778;7.196;2024-01-27T11:23:33;12.10;;;3.30;;
9823;SDS011;4951;50.778;7.196;2024-01-27T11:26:05;12.60;;;3.50;;
9823;SDS011;4951;50.778;7.196;2024-01-27T11:28:34;13.83;;;3.67;;
9823;SDS011;4951;50.778;7.196;2024-01-27T11:31:04;8.67;;;3.10;;
9823;SDS011;4951;50.778;7.196;2024-01-27T11:33:39;12.37;;;3.30;;
9823;SDS011;4951;50.778;7.196;2024-01-27T11:36:17;11.23;;;3.50;;
9823;SDS011;4951;50.778;7.196;2024-01-27T11:38:49;7.50;;;3.57;;
9823;SDS011;4951;50.778;7.196;2024-01-27T11:41:23;14.50;;;2.97;;
9823;SDS011;4951;50.778;7.196;2024-01-27T11:43:52;11.50;;;3.60;;
9823;SDS011;4951;50.778;7.196;2024-01-27T11:46:24;8.27;;;3.17;;
9823;SDS011;4951;50.778;7.196;2024-01-27T11:48:53;10.40;;;3.47;;
9823;SDS011;4951;50.778;7.196;2024-01-27T11:51:22;9.60;;;3.03;;
9823;SDS011;4951;50.778;7.196;2024-01-27T11:53:52;7.97;;;2.80;;
9823;SDS011;4951;50.778;7.196;2024-01-27T11:56:22;8.57;;;3.00;;
9823;SDS011;4951;50.778;7.196;2024-01-27T11:58:51;8.83;;;3.13;;
9823;SDS011;4951;50.778;7.196;2024-01-27T12:01:19;13.17;;;3.33;;
9823;SDS011;4951;50.778;7.196;2024-01-27T12:03:53;8.83;;;3.40;;
9823;SDS011;4951;50.778;7.196;2024-01-27T12:06:22;9.33;;;3.17;;
9823;SDS011;4951;50.778;7.196;2024-01-27T12:08:54;9.53;;;3.40;;
9823;SDS011;4951;50.778;7.196;2024-01-27T12:11:23;12.03;;;3.37;;
9823;SDS011;4951;50.778;7.196;2024-01-27T12:13:51;8.70;;;3.17;;
9823;SDS011;4951;50.778;7.196;2024-01-27T12:16:24;9.07;;;3.10;;
9823;SDS011;4951;50.778;7.196;2024-01-27T12:18:59;8.30;;;3.10;;
9823;SDS011;4951;50.778;7.196;2024-01-27T12:21:27;8.20;;;2.67;;
9823;SDS011;4951;50.778;7.196;2024-01-27T12:23:55;10.07;;;2.70;;
9823;SDS011;4951;50.778;7.196;2024-01-27T12:26:24;11.83;;;3.37;;
9823;SDS011;4951;50.778;7.196;2024-01-27T12:28:55;9.80;;;3.20;;
9823;SDS011;4951;50.778;7.196;2024-01-27T12:31:25;8.93;;;3.20;;
9823;SDS011;4951;50.778;7.196;2024-01-27T12:33:56;10.07;;;3.03;;
9823;SDS011;4951;50.778;7.196;2024-01-27T12:36:26;9.80;;;2.97;;
9823;SDS011;4951;50.778;7.196;2024-01-27T12:38:54;8.40;;;3.23;;
9823;SDS011;4951;50.778;7.196;2024-01-27T12:41:24;7.77;;;2.63;;
9823;SDS011;4951;50.778;7.196;2024-01-27T12:43:52;10.93;;;2.90;;
9823;SDS011;4951;50.778;7.196;2024-01-27T12:46:23;14.10;;;2.90;;
9823;SDS011;4951;50.778;7.196;2024-01-27T12:48:52;9.73;;;2.90;;
9823;SDS011;4951;50.778;7.196;2024-01-27T12:51:22;7.70;;;2.73;;
9823;SDS011;4951;50.778;7.196;2024-01-27T12:53:50;7.93;;;2.73;;
9823;SDS011;4951;50.778;7.196;2024-01-27T12:56:18;5.13;;;2.83;;
9823;SDS011;4951;50.778;7.196;2024-01-27T12:58:45;7.80;;;2.80;;
9823;SDS011;4951;50.778;7.196;2024-01-27T13:01:13;6.97;;;2.57;;
9823;SDS011;4951;50.778;7.196;2024-01-27T13:03:41;10.20;;;2.80;;
9823;SDS011;4951;50.778;7.196;2024-01-27T13:06:08;6.03;;;2.80;;
9823;SDS011;4951;50.778;7.196;2024-01-27T13:08:38;10.30;;;2.83;;
9823;SDS011;4951;50.778;7.196;2024-01-27T13:11:07;11.07;;;3.10;;
9823;SDS011;4951;50.778;7.196;2024-01-27T13:13:37;10.00;;;2.90;;
9823;SDS011;4951;50.778;7.196;2024-01-27T13:16:05;11.13;;;3.23;;
9823;SDS011;4951;50.778;7.196;2024-01-27T13:18:33;8.07;;;3.10;;
9823;SDS011;4951;50.778;7.196;2024-01-27T13:21:01;7.17;;;2.70;;
9823;SDS011;4951;50.778;7.196;2024-01-27T13:23:33;10.80;;;3.20;;
9823;SDS011;4951;50.778;7.196;2024-01-27T13:26:03;6.70;;;2.53;;
9823;SDS011;4951;50.778;7.196;2024-01-27T13:28:31;12.00;;;3.00;;
9823;SDS011;4951;50.778;7.196;2024-01-27T13:30:59;11.40;;;3.27;;
9823;SDS011;4951;50.778;7.196;2024-01-27T13:33:28;9.43;;;2.67;;
9823;SDS011;4951;50.778;7.196;2024-01-27T13:35:58;7.80;;;2.60;;
9823;SDS011;4951;50.778;7.196;2024-01-27T13:38:26;11.33;;;3.30;;
9823;SDS011;4951;50.778;7.196;2024-01-27T13:40:54;7.50;;;3.13;;
9823;SDS011;4951;50.778;7.196;2024-01-27T13:43:23;7.77;;;3.20;;
9823;SDS011;4951;50.778;7.196;2024-01-27T13:45:51;9.40;;;3.03;;
9823;SDS011;4951;50.778;7.196;2024-01-27T13:48:20;8.13;;;2.87;;
9823;SDS011;4951;50.778;7.196;2024-01-27T13:50:50;10.90;;;3.03;;
9823;SDS011;4951;50.778;7.196;2024-01-27T13:53:25;10.73;;;3.30;;
9823;SDS011;4951;50.778;7.196;2024-01-27T13:55:53;6.83;;;3.30;;
9823;SDS011;4951;50.778;7.196;2024-01-27T13:58:25;8.00;;;3.00;;
9823;SDS011;4951;50.778;7.196;2024-01-27T14:00:53;8.13;;;2.70;;
9823;SDS011;4951;50.778;7.196;2024-01-27T14:03:21;7.50;;;2.80;;
9823;SDS011;4951;50.778;7.196;2024-01-27T14:05:48;7.87;;;2.70;;
9823;SDS011;4951;50.778;7.196;2024-01-27T14:08:16;13.87;;;3.10;;
9823;SDS011;4951;50.778;7.196;2024-01-27T14:10:44;8.10;;;2.60;;
9823;SDS011;4951;50.778;7.196;2024-01-27T14:13:14;9.83;;;3.00;;
9823;SDS011;4951;50.778;7.196;2024-01-27T14:15:43;8.77;;;2.80;;
9823;SDS011;4951;50.778;7.196;2024-01-27T14:18:11;8.27;;;2.60;;
9823;SDS011;4951;50.778;7.196;2024-01-27T14:20:48;7.33;;;2.60;;
9823;SDS011;4951;50.778;7.196;2024-01-27T14:23:18;6.23;;;2.60;;
9823;SDS011;4951;50.778;7.196;2024-01-27T14:25:49;10.37;;;3.10;;
9823;SDS011;4951;50.778;7.196;2024-01-27T14:28:17;10.63;;;2.83;;
9823;SDS011;4951;50.778;7.196;2024-01-27T14:30:46;9.30;;;2.90;;
9823;SDS011;4951;50.778;7.196;2024-01-27T14:33:14;8.00;;;2.60;;
9823;SDS011;4951;50.778;7.196;2024-01-27T14:35:46;6.67;;;2.40;;
9823;SDS011;4951;50.778;7.196;2024-01-27T14:38:14;8.27;;;3.13;;
9823;SDS011;4951;50.778;7.196;2024-01-27T14:40:42;9.87;;;3.03;;
9823;SDS011;4951;50.778;7.196;2024-01-27T14:43:13;7.83;;;3.10;;
9823;SDS011;4951;50.778;7.196;2024-01-27T14:45:43;11.27;;;3.53;;
9823;SDS011;4951;50.778;7.196;2024-01-27T14:48:12;9.87;;;3.10;;
9823;SDS011;4951;50.778;7.196;2024-01-27T14:50:43;11.13;;;3.03;;
9823;SDS011;4951;50.778;7.196;2024-01-27T14:53:11;8.73;;;2.83;;
9823;SDS011;4951;50.778;7.196;2024-01-27T14:55:40;8.57;;;2.93;;
9823;SDS011;4951;50.778;7.196;2024-01-27T14:58:09;9.67;;;2.60;;
9823;SDS011;4951;50.778;7.196;2024-01-27T15:00:37;9.20;;;3.13;;
9823;SDS011;4951;50.778;7.196;2024-01-27T15:03:05;7.60;;;2.83;;
9823;SDS011;4951;50.778;7.196;2024-01-27T15:05:40;9.77;;;2.73;;
9823;SDS011;4951;50.778;7.196;2024-01-27T15:08:09;10.90;;;3.00;;
9823;SDS011;4951;50.778;7.196;2024-01-27T15:10:37;10.00;;;2.83;;
9823;SDS011;4951;50.778;7.196;2024-01-27T15:13:05;8.40;;;2.80;;
9823;SDS011;4951;50.778;7.196;2024-01-27T15:15:34;9.03;;;2.70;;
9823;SDS011;4951;50.778;7.196;2024-01-27T15:18:04;11.63;;;3.30;;
9823;SDS011;4951;50.778;7.196;2024-01-27T15:20:33;9.30;;;2.90;;
9823;SDS011;4951;50.778;7.196;2024-01-27T15:23:04;6.50;;;2.43;;
9823;SDS011;4951;50.778;7.196;2024-01-27T15:25:33;9.03;;;3.40;;